BEL1TE EBBR-LGKO
Flight info
| Callsign | BEL1TE |
|---|---|
| Flight time | N/A |
| Altitude | 35000 |
| Route | SOPOK Y863 ROPUV L607 EMGOD DCT BOMBI DCT DETEV DCT DINKU DCT BESNI DCT LATLO DCT OBEDI DCT PODET DCT SOMUN DCT NISVA Y505 NIKTI UN127 LMO UL618 MES UN139 LURUS UL995 KOPAR |
| Aircraft | A20N/M-DE3FGHIJ1LORVWY/HB1G1 |
Departure
| Time | N/A |
|---|---|
| Airport | Brussels Airport (EBBR) |
Arrival
| Time | 2026-05-06 16:42 |
|---|---|
| Airport | Kos International Airport "Ippokratis" (LGKO) |
| Time | Latitude | Longitude | Altitude | Speed | Heading |
|---|---|---|---|---|---|
| 2026-05-06 16:34 | 36.67390 | 26.92501 | 6669 ft | 276 kts | 112° |
| 2026-05-06 16:34 | 36.66558 | 26.94641 | 6371 ft | 275 kts | 111° |
| 2026-05-06 16:35 | 36.65950 | 26.96899 | 6067 ft | 275 kts | 99° |
| 2026-05-06 16:35 | 36.65586 | 26.99210 | 5773 ft | 274 kts | 96° |
| 2026-05-06 16:35 | 36.65268 | 27.01539 | 5480 ft | 273 kts | 96° |
| 2026-05-06 16:35 | 36.64963 | 27.03886 | 5177 ft | 272 kts | 95° |
| 2026-05-06 16:36 | 36.64666 | 27.06188 | 4882 ft | 271 kts | 95° |
| 2026-05-06 16:36 | 36.64372 | 27.08516 | 4583 ft | 270 kts | 95° |
| 2026-05-06 16:36 | 36.64084 | 27.10798 | 4294 ft | 267 kts | 95° |
| 2026-05-06 16:36 | 36.63799 | 27.13077 | 3949 ft | 265 kts | 95° |
| 2026-05-06 16:37 | 36.63540 | 27.15332 | 3584 ft | 264 kts | 90° |
| 2026-05-06 16:37 | 36.63821 | 27.17522 | 3202 ft | 256 kts | 62° |
| 2026-05-06 16:37 | 36.64882 | 27.19224 | 2813 ft | 243 kts | 33° |
| 2026-05-06 16:37 | 36.65833 | 27.19845 | 2549 ft | 225 kts | 13° |
| 2026-05-06 16:38 | 36.67754 | 27.19600 | 2048 ft | 201 kts | 326° |
| 2026-05-06 16:38 | 36.68719 | 27.18470 | 2016 ft | 188 kts | 311° |
| 2026-05-06 16:38 | 36.69555 | 27.17298 | 2063 ft | 170 kts | 315° |
| 2026-05-06 16:38 | 36.70379 | 27.16382 | 1989 ft | 147 kts | 322° |
| 2026-05-06 16:39 | 36.71167 | 27.15650 | 1979 ft | 135 kts | 324° |
| 2026-05-06 16:39 | 36.71925 | 27.14999 | 1869 ft | 131 kts | 326° |
| 2026-05-06 16:39 | 36.72692 | 27.14384 | 1716 ft | 130 kts | 327° |
| 2026-05-06 16:39 | 36.73464 | 27.13781 | 1535 ft | 130 kts | 327° |
| 2026-05-06 16:40 | 36.74224 | 27.13191 | 1362 ft | 129 kts | 326° |
| 2026-05-06 16:40 | 36.74989 | 27.12596 | 1190 ft | 129 kts | 326° |
| 2026-05-06 16:40 | 36.75750 | 27.12004 | 1024 ft | 128 kts | 326° |
| 2026-05-06 16:40 | 36.76502 | 27.11409 | 853 ft | 128 kts | 325° |
| 2026-05-06 16:41 | 36.77257 | 27.10799 | 689 ft | 128 kts | 326° |
| 2026-05-06 16:41 | 36.78017 | 27.10228 | 524 ft | 127 kts | 326° |
| 2026-05-06 16:41 | 36.78769 | 27.09651 | 386 ft | 123 kts | 325° |
| 2026-05-06 16:41 | 36.79391 | 27.09163 | 403 ft | 80 kts | 328° |
| 2026-05-06 16:42 | 36.79665 | 27.08977 | 410 ft | 19 kts | 2° |
| 2026-05-06 16:42 | 36.79776 | 27.08983 | 412 ft | 11 kts | 358° |
| 2026-05-06 16:42 | 36.79850 | 27.08981 | 413 ft | 8 kts | 359° |
| 2026-05-06 16:42 | 36.79906 | 27.08978 | 414 ft | 7 kts | 358° |
| 2026-05-06 16:43 | 36.79947 | 27.08969 | 415 ft | 4 kts | 331° |
| 2026-05-06 16:43 | 36.79972 | 27.08951 | 416 ft | 4 kts | 329° |
| 2026-05-06 16:43 | 36.79995 | 27.08936 | 416 ft | 3 kts | 348° |
| 2026-05-06 16:43 | 36.80010 | 27.08947 | 416 ft | 2 kts | 71° |
| 2026-05-06 16:44 | 36.80011 | 27.08971 | 417 ft | 2 kts | 88° |
| 2026-05-06 16:44 | 36.80012 | 27.08993 | 418 ft | 2 kts | 88° |
| 2026-05-06 16:44 | 36.80012 | 27.09011 | 418 ft | 1 kts | 88° |
| 2026-05-06 16:44 | 36.80012 | 27.09020 | 418 ft | 0 kts | 88° |
| 2026-05-06 16:45 | 36.80013 | 27.09024 | 418 ft | 0 kts | 88° |